createdAt,value
2018-04-06T00:01:12.496Z,57.70
2018-04-06T00:03:40.131Z,57.80
2018-04-06T00:06:07.586Z,57.90
2018-04-06T00:08:35.174Z,58.10
2018-04-06T00:11:02.907Z,58.20
2018-04-06T00:13:30.350Z,58.40
2018-04-06T00:15:57.998Z,58.30
2018-04-06T00:18:25.590Z,58.40
2018-04-06T00:20:53.341Z,58.50
2018-04-06T00:23:21.306Z,58.40
2018-04-06T00:25:48.866Z,58.50
2018-04-06T00:28:16.631Z,58.60
2018-04-06T00:30:44.124Z,58.50
2018-04-06T00:33:11.854Z,58.60
2018-04-06T00:35:39.311Z,58.70
2018-04-06T00:38:07.010Z,58.60
2018-04-06T00:40:34.466Z,58.50
2018-04-06T00:43:01.963Z,58.70
2018-04-06T00:45:29.423Z,58.90
2018-04-06T00:47:57.204Z,59.00
2018-04-06T00:50:24.839Z,58.90
2018-04-06T00:52:52.414Z,59.00
2018-04-06T00:55:20.058Z,59.10
2018-04-06T00:57:47.563Z,59.20
2018-04-06T01:00:15.098Z,59.10
2018-04-06T01:02:42.872Z,59.20
2018-04-06T01:05:10.627Z,59.10
2018-04-06T01:07:38.303Z,59.10
2018-04-06T01:10:05.754Z,59.40
2018-04-06T01:12:33.302Z,59.50
2018-04-06T01:15:00.753Z,59.20
2018-04-06T01:17:28.211Z,59.40
2018-04-06T01:19:55.771Z,59.50
2018-04-06T01:22:23.321Z,59.50
2018-04-06T01:24:50.896Z,59.60
2018-04-06T01:27:18.373Z,59.60
2018-04-06T01:29:46.118Z,59.50
2018-04-06T01:32:13.578Z,59.60
2018-04-06T01:34:41.219Z,59.50
2018-04-06T01:37:08.667Z,59.50
2018-04-06T01:39:36.206Z,59.60
2018-04-06T01:42:03.693Z,59.70
2018-04-06T01:47:04.462Z,59.80
2018-04-06T01:49:44.814Z,59.80
2018-04-06T01:52:12.531Z,59.80
2018-04-06T01:54:39.993Z,59.90
2018-04-06T01:57:07.446Z,59.70
2018-04-06T01:59:34.906Z,59.80
2018-04-06T02:02:02.358Z,60.10
2018-04-06T02:04:29.815Z,60.40
2018-04-06T02:06:57.267Z,60.20
2018-04-06T02:09:24.713Z,60.20
2018-04-06T02:11:52.238Z,60.10
2018-04-06T02:14:19.702Z,60.00
2018-04-06T02:16:47.366Z,60.10
2018-04-06T02:19:14.830Z,60.10
2018-04-06T02:21:42.281Z,60.10
2018-04-06T02:24:09.828Z,60.20
2018-04-06T02:26:37.579Z,60.30
2018-04-06T02:29:05.026Z,60.40
2018-04-06T02:31:32.485Z,60.60
2018-04-06T02:33:59.959Z,60.70
2018-04-06T02:36:27.611Z,60.80
2018-04-06T02:38:55.058Z,60.70
2018-04-06T02:41:22.561Z,60.70
2018-04-06T02:43:50.091Z,60.80
2018-04-06T02:46:17.751Z,60.60
2018-04-06T02:48:45.311Z,60.50
2018-04-06T02:51:12.772Z,60.50
2018-04-06T02:53:40.222Z,60.80
2018-04-06T02:56:07.996Z,61.10
2018-04-06T02:58:35.821Z,61.00
2018-04-06T03:01:03.514Z,60.60
2018-04-06T03:03:30.972Z,60.70
2018-04-06T03:05:58.443Z,60.70
2018-04-06T03:08:26.196Z,60.60
2018-04-06T03:10:53.656Z,60.80
2018-04-06T03:13:21.353Z,60.80
2018-04-06T03:15:48.875Z,60.80
2018-04-06T03:18:16.366Z,60.70
2018-04-06T03:20:43.975Z,61.00
2018-04-06T03:23:11.547Z,61.20
2018-04-06T03:25:39.033Z,61.30
2018-04-06T03:28:06.478Z,61.20
2018-04-06T03:30:34.107Z,61.20
2018-04-06T03:33:01.563Z,61.30
2018-04-06T03:35:29.052Z,61.20
2018-04-06T03:37:56.504Z,61.20
2018-04-06T03:40:23.958Z,61.30
2018-04-06T03:42:51.511Z,61.90
2018-04-06T03:45:18.962Z,61.20
2018-04-06T03:50:20.516Z,61.10
2018-04-06T03:52:48.091Z,61.40
2018-04-06T03:55:15.860Z,61.40
2018-04-06T03:57:43.327Z,61.50
2018-04-06T04:00:10.922Z,61.70
2018-04-06T04:02:38.535Z,61.90
2018-04-06T04:05:05.991Z,61.70
2018-04-06T04:07:33.451Z,61.90
2018-04-06T04:10:00.907Z,61.90
2018-04-06T04:12:28.375Z,61.80
2018-04-06T04:14:56.126Z,61.70
2018-04-06T04:17:23.887Z,61.60
2018-04-06T04:19:51.347Z,61.70
2018-04-06T04:22:18.986Z,61.60
2018-04-06T04:24:46.462Z,61.60
2018-04-06T04:27:14.023Z,61.70
2018-04-06T04:29:41.672Z,61.90
2018-04-06T04:32:09.245Z,61.80
2018-04-06T04:34:37.622Z,61.70
2018-04-06T04:37:05.086Z,61.60
2018-04-06T04:39:32.710Z,61.50
2018-04-06T04:42:00.300Z,61.70
2018-04-06T04:44:28.066Z,61.70
2018-04-06T04:46:55.634Z,61.60
2018-04-06T04:49:23.196Z,61.70
2018-04-06T04:51:50.731Z,61.60
2018-04-06T04:54:18.387Z,61.60
2018-04-06T04:56:45.871Z,61.80
2018-04-06T04:59:13.427Z,61.80
2018-04-06T05:01:41.181Z,61.90
2018-04-06T05:04:08.822Z,61.80
2018-04-06T05:06:36.399Z,61.80
2018-04-06T05:09:03.868Z,61.60
2018-04-06T05:11:31.312Z,61.50
2018-04-06T05:13:59.095Z,61.50
2018-04-06T05:16:26.786Z,61.40
2018-04-06T05:18:55.152Z,61.70
2018-04-06T05:21:22.611Z,61.70
2018-04-06T05:23:50.072Z,61.80
2018-04-06T05:26:17.590Z,61.70
2018-04-06T05:28:45.062Z,61.70
2018-04-06T05:31:12.810Z,61.50
2018-04-06T05:33:41.206Z,61.60
2018-04-06T05:36:08.670Z,61.60
2018-04-06T05:38:36.497Z,61.50
2018-04-06T05:41:04.097Z,61.50
2018-04-06T05:43:31.550Z,61.30
2018-04-06T05:45:59.084Z,61.00
2018-04-06T05:48:26.728Z,60.90
2018-04-06T05:50:54.322Z,60.70
2018-04-06T05:53:22.087Z,60.90
2018-04-06T05:55:49.846Z,60.50
2018-04-06T05:58:17.435Z,61.20
2018-04-06T06:00:45.066Z,61.00
2018-04-06T06:03:12.510Z,61.00
2018-04-06T06:05:40.302Z,61.00
2018-04-06T06:08:08.039Z,61.00
2018-04-06T06:10:35.702Z,60.80
2018-04-06T06:13:03.167Z,60.60
2018-04-06T06:15:30.622Z,60.50
2018-04-06T06:17:58.182Z,60.30
2018-04-06T06:20:25.805Z,60.60
2018-04-06T06:22:53.272Z,60.60
2018-04-06T06:25:20.759Z,60.60
2018-04-06T06:27:48.332Z,61.00
2018-04-06T06:30:15.779Z,60.00
2018-04-06T06:32:43.522Z,60.10
2018-04-06T06:35:10.966Z,60.00
2018-04-06T06:37:38.435Z,59.70
2018-04-06T06:40:06.094Z,59.50
2018-04-06T06:42:33.559Z,59.60
2018-04-06T06:45:01.106Z,59.30
2018-04-06T06:47:28.582Z,59.20
2018-04-06T06:49:56.330Z,59.20
2018-04-06T06:52:23.783Z,59.10
2018-04-06T06:54:51.434Z,59.00
2018-04-06T06:57:18.890Z,58.90
2018-04-06T06:59:46.630Z,58.80
2018-04-06T07:02:14.232Z,58.60
2018-04-06T07:04:41.874Z,58.60
2018-04-06T07:07:09.331Z,58.40
2018-04-06T07:09:37.111Z,58.00
2018-04-06T07:12:04.560Z,58.10
2018-04-06T07:14:32.048Z,58.60
2018-04-06T07:16:59.542Z,58.10
2018-04-06T07:19:27.011Z,58.00
2018-04-06T07:21:54.506Z,58.00
2018-04-06T07:24:22.267Z,57.80
2018-04-06T07:26:49.723Z,57.60
2018-04-06T07:29:17.191Z,57.30
2018-04-06T07:31:44.942Z,57.10
2018-04-06T07:34:12.422Z,56.70
2018-04-06T07:36:40.060Z,56.30
2018-04-06T07:39:07.508Z,55.70
2018-04-06T07:41:34.964Z,55.00
2018-04-06T07:44:02.472Z,54.40
2018-04-06T07:46:29.931Z,53.90
2018-04-06T07:48:57.396Z,53.40
2018-04-06T07:51:24.878Z,52.90
2018-04-06T07:53:52.325Z,52.50
2018-04-06T07:56:22.301Z,52.10
2018-04-06T07:58:47.255Z,51.70
2018-04-06T08:01:14.706Z,51.50
2018-04-06T08:03:42.154Z,51.30
2018-04-06T08:06:09.619Z,50.80
2018-04-06T08:08:37.074Z,51.00
2018-04-06T08:11:04.534Z,50.00
2018-04-06T08:13:32.000Z,49.80
2018-04-06T08:15:59.459Z,49.50
2018-04-06T08:18:26.910Z,49.30
2018-04-06T08:20:55.328Z,49.10
2018-04-06T08:23:23.011Z,49.00
2018-04-06T08:25:50.510Z,48.60
2018-04-06T08:28:18.157Z,48.50
2018-04-06T08:30:45.750Z,48.30
2018-04-06T08:33:13.422Z,48.20
2018-04-06T08:35:40.874Z,47.90
2018-04-06T08:38:09.098Z,47.50
2018-04-06T08:40:36.787Z,47.50
2018-04-06T08:43:04.252Z,47.30
2018-04-06T08:45:32.014Z,47.20
2018-04-06T08:47:59.518Z,47.10
2018-04-06T08:50:27.239Z,46.90
2018-04-06T08:52:54.798Z,46.70
2018-04-06T08:55:22.246Z,46.70
2018-04-06T08:57:49.722Z,46.40
2018-04-06T09:00:17.270Z,46.10
2018-04-06T09:02:44.722Z,46.00
2018-04-06T09:05:12.174Z,45.80
2018-04-06T09:07:39.801Z,45.50
2018-04-06T09:10:07.301Z,45.30
2018-04-06T09:12:34.831Z,44.90
2018-04-06T09:15:02.235Z,44.60
2018-04-06T09:17:30.496Z,44.40
2018-04-06T09:19:57.970Z,44.40
2018-04-06T09:22:25.422Z,43.40
2018-04-06T09:24:52.879Z,43.20
2018-04-06T09:27:20.335Z,43.00
2018-04-06T09:29:47.792Z,42.80
2018-04-06T09:32:15.253Z,42.60
2018-04-06T09:34:42.706Z,42.30
2018-04-06T09:37:10.164Z,42.00
2018-04-06T09:39:37.653Z,41.70
2018-04-06T09:42:05.115Z,41.40
2018-04-06T09:44:32.563Z,41.10
2018-04-06T09:47:00.131Z,40.70
2018-04-06T09:49:27.621Z,40.40
2018-04-06T09:51:55.095Z,40.10
2018-04-06T09:54:22.551Z,39.80
2018-04-06T09:56:50.026Z,39.70
2018-04-06T09:59:17.518Z,39.50
2018-04-06T10:01:47.402Z,39.20
2018-04-06T10:04:14.858Z,38.70
2018-04-06T10:06:42.314Z,38.40
2018-04-06T10:09:09.766Z,38.20
2018-04-06T10:11:37.220Z,38.10
2018-04-06T10:14:04.671Z,37.80
2018-04-06T10:16:32.122Z,37.80
2018-04-06T10:18:59.578Z,38.20
2018-04-06T10:21:27.027Z,37.70
2018-04-06T10:23:54.504Z,37.60
2018-04-06T10:26:22.811Z,37.40
2018-04-06T10:28:50.276Z,37.30
2018-04-06T10:31:17.740Z,36.90
2018-04-06T10:33:45.255Z,36.70
2018-04-06T10:36:12.709Z,36.60
2018-04-06T10:38:40.171Z,36.50
2018-04-06T10:41:07.619Z,36.50
2018-04-06T10:43:35.079Z,36.50
2018-04-06T10:46:02.613Z,36.60
2018-04-06T10:48:30.103Z,36.50
2018-04-06T10:50:58.474Z,36.50
2018-04-06T10:53:25.979Z,36.40
2018-04-06T10:55:53.383Z,36.40
2018-04-06T10:58:20.845Z,36.40
2018-04-06T11:00:48.304Z,36.40
2018-04-06T11:03:15.750Z,36.50
2018-04-06T11:05:43.429Z,36.50
2018-04-06T11:08:10.879Z,36.50
2018-04-06T11:10:38.419Z,36.40
2018-04-06T11:13:06.174Z,36.30
2018-04-06T11:15:33.842Z,36.30
2018-04-06T11:18:01.295Z,36.30
2018-04-06T11:20:28.775Z,36.20
2018-04-06T11:22:56.255Z,36.30
2018-04-06T11:25:23.702Z,36.30
2018-04-06T11:27:51.165Z,36.30
2018-04-06T11:30:18.634Z,36.20
2018-04-06T11:32:46.095Z,36.10
2018-04-06T11:35:13.591Z,36.00
2018-04-06T11:37:41.038Z,36.00
2018-04-06T11:40:08.499Z,36.00
2018-04-06T11:42:36.124Z,35.70
2018-04-06T11:45:03.566Z,35.70
2018-04-06T11:47:31.023Z,35.70
2018-04-06T11:49:58.492Z,35.70
2018-04-06T11:52:25.974Z,35.70
2018-04-06T11:54:54.352Z,35.50
2018-04-06T11:57:21.824Z,35.40
2018-04-06T11:59:49.313Z,35.40
2018-04-06T12:02:16.746Z,35.30
2018-04-06T12:04:44.198Z,35.10
2018-04-06T12:07:11.693Z,35.10
2018-04-06T12:09:39.161Z,35.20
2018-04-06T12:12:06.621Z,35.10
2018-04-06T12:14:34.071Z,34.90
2018-04-06T12:17:01.614Z,34.60
2018-04-06T12:19:29.836Z,34.30
2018-04-06T12:21:57.278Z,34.30
2018-04-06T12:24:24.774Z,34.10
2018-04-06T12:26:52.225Z,34.10
2018-04-06T12:29:19.682Z,33.90
2018-04-06T12:31:47.147Z,33.70
2018-04-06T12:34:14.611Z,33.50
2018-04-06T12:36:42.066Z,33.20
2018-04-06T12:39:09.539Z,33.00
2018-04-06T12:41:36.994Z,33.00
2018-04-06T12:44:04.514Z,33.00
2018-04-06T12:46:31.970Z,32.80
2018-04-06T12:48:59.448Z,32.60
2018-04-06T12:51:26.898Z,32.60
2018-04-06T12:53:54.367Z,32.50
2018-04-06T12:56:21.851Z,32.30
2018-04-06T12:58:50.091Z,32.30
2018-04-06T13:01:17.557Z,32.30
2018-04-06T13:03:45.014Z,32.20
2018-04-06T13:06:12.474Z,32.30
2018-04-06T13:08:39.930Z,32.50
2018-04-06T13:11:07.390Z,32.40
2018-04-06T13:13:34.834Z,32.20
2018-04-06T13:16:02.691Z,32.10
2018-04-06T13:18:30.147Z,31.90
2018-04-06T13:20:57.604Z,31.60
2018-04-06T13:23:25.057Z,31.60
2018-04-06T13:25:52.521Z,31.60
2018-04-06T13:28:19.975Z,31.40
2018-04-06T13:30:47.443Z,31.20
2018-04-06T13:33:14.890Z,31.00
2018-04-06T13:35:42.343Z,30.90
2018-04-06T13:38:09.805Z,30.70
2018-04-06T13:40:37.254Z,30.70
2018-04-06T13:43:04.718Z,30.70
2018-04-06T13:45:32.179Z,30.60
2018-04-06T13:47:59.655Z,30.60
2018-04-06T13:50:27.156Z,30.60
2018-04-06T13:52:54.612Z,30.50
2018-04-06T13:55:22.062Z,30.30
2018-04-06T13:57:49.518Z,30.10
2018-04-06T14:00:16.981Z,29.90
2018-04-06T14:02:44.450Z,29.70
2018-04-06T14:05:11.899Z,29.00
2018-04-06T14:07:39.350Z,28.20
2018-04-06T14:10:06.803Z,26.80
2018-04-06T14:12:34.263Z,25.50
2018-04-06T14:15:01.735Z,24.40
2018-04-06T14:17:29.203Z,23.60
2018-04-06T14:19:56.656Z,23.60
2018-04-06T14:22:24.103Z,23.10
2018-04-06T14:24:51.567Z,22.10
2018-04-06T14:27:19.096Z,21.70
2018-04-06T14:29:46.598Z,21.70
2018-04-06T14:32:14.051Z,21.70
2018-04-06T14:34:41.513Z,22.00
2018-04-06T14:37:08.975Z,22.90
2018-04-06T14:39:36.433Z,23.40
2018-04-06T14:42:03.889Z,24.00
2018-04-06T14:44:31.375Z,24.20
2018-04-06T14:46:58.824Z,24.30
2018-04-06T14:49:26.284Z,23.90
2018-04-06T14:51:53.737Z,23.00
2018-04-06T14:54:21.198Z,23.20
2018-04-06T14:56:48.646Z,23.40
2018-04-06T14:59:16.097Z,23.30
2018-04-06T15:01:43.590Z,22.50
2018-04-06T15:04:11.083Z,21.40
2018-04-06T15:06:38.564Z,20.40
2018-04-06T15:09:06.680Z,19.80
2018-04-06T15:11:34.156Z,19.80
2018-04-06T15:14:01.635Z,20.00
2018-04-06T15:16:29.140Z,19.50
2018-04-06T15:18:56.611Z,19.10
2018-04-06T15:21:24.135Z,18.60
2018-04-06T15:23:51.650Z,18.70
2018-04-06T15:26:19.144Z,18.60
2018-04-06T15:28:46.614Z,18.60
2018-04-06T15:31:14.105Z,18.40
2018-04-06T15:33:41.607Z,18.30
2018-04-06T15:36:09.183Z,18.80
2018-04-06T15:38:37.233Z,19.70
2018-04-06T15:41:04.753Z,20.00
2018-04-06T15:43:32.227Z,20.50
2018-04-06T15:45:59.692Z,21.10
2018-04-06T15:48:27.197Z,21.70
2018-04-06T15:50:54.694Z,22.10
2018-04-06T15:53:22.231Z,22.00
2018-04-06T15:55:49.723Z,20.90
2018-04-06T15:58:17.192Z,20.40
2018-04-06T16:00:44.711Z,20.50
2018-04-06T16:03:12.204Z,20.80
2018-04-06T16:05:39.687Z,21.40
2018-04-06T16:08:07.199Z,21.70
2018-04-06T16:10:34.744Z,22.00
2018-04-06T16:13:02.295Z,22.60
2018-04-06T16:15:29.878Z,23.10
2018-04-06T16:17:57.367Z,23.50
2018-04-06T16:20:24.873Z,23.80
2018-04-06T16:22:53.166Z,23.70
2018-04-06T16:25:20.627Z,23.60
2018-04-06T16:27:48.095Z,23.40
2018-04-06T16:30:15.613Z,24.10
2018-04-06T16:32:43.122Z,24.70
2018-04-06T16:35:10.618Z,24.60
2018-04-06T16:37:38.117Z,24.40
2018-04-06T16:40:05.637Z,24.50
2018-04-06T16:42:33.092Z,25.00
2018-04-06T16:45:00.610Z,25.30
2018-04-06T16:47:28.050Z,25.60
2018-04-06T16:49:55.533Z,25.80
2018-04-06T16:52:23.000Z,26.00
2018-04-06T16:54:50.524Z,26.30
2018-04-06T16:57:17.994Z,26.40
2018-04-06T16:59:45.479Z,26.50
2018-04-06T17:02:12.952Z,26.70
2018-04-06T17:04:40.429Z,26.90
2018-04-06T17:07:07.903Z,27.20
2018-04-06T17:09:35.388Z,27.40
2018-04-06T17:12:02.880Z,27.60
2018-04-06T17:14:30.384Z,27.40
2018-04-06T17:16:57.847Z,27.90
2018-04-06T17:19:26.516Z,28.00
2018-04-06T17:21:55.772Z,28.20
2018-04-06T17:24:23.994Z,28.50
2018-04-06T17:26:52.400Z,28.50
2018-04-06T17:29:19.924Z,28.60
2018-04-06T17:31:47.422Z,28.70
2018-04-06T17:34:14.882Z,28.70
2018-04-06T17:36:42.423Z,28.90
2018-04-06T17:39:09.923Z,28.90
2018-04-06T17:41:38.306Z,29.00
2018-04-06T17:44:06.563Z,29.10
2018-04-06T17:46:34.074Z,29.10
2018-04-06T17:49:01.566Z,29.30
2018-04-06T17:51:29.073Z,29.60
2018-04-06T17:53:56.564Z,29.70
2018-04-06T17:56:24.109Z,29.80
2018-04-06T17:58:51.606Z,29.90
2018-04-06T18:01:19.071Z,30.00
2018-04-06T18:03:46.586Z,30.30
2018-04-06T18:06:14.072Z,30.40
2018-04-06T18:08:41.535Z,30.60
2018-04-06T18:11:09.068Z,30.70
2018-04-06T18:13:36.599Z,31.00
2018-04-06T18:16:04.093Z,31.10
2018-04-06T18:18:31.550Z,31.30
2018-04-06T18:20:59.890Z,31.50
2018-04-06T18:23:28.192Z,31.80
2018-04-06T18:25:55.685Z,31.90
2018-04-06T18:28:23.996Z,32.30
2018-04-06T18:30:52.268Z,32.30
2018-04-06T18:33:19.734Z,32.40
2018-04-06T18:35:47.260Z,32.50
2018-04-06T18:38:15.497Z,32.80
2018-04-06T18:40:42.970Z,32.80
2018-04-06T18:43:10.429Z,33.00
2018-04-06T18:45:37.911Z,33.10
2018-04-06T18:48:06.160Z,33.40
2018-04-06T18:50:33.624Z,33.40
2018-04-06T18:53:01.096Z,33.50
2018-04-06T18:55:29.353Z,33.90
2018-04-06T18:57:56.824Z,33.90
2018-04-06T19:00:25.097Z,34.50
2018-04-06T19:02:52.564Z,34.50
2018-04-06T19:05:20.051Z,34.70
2018-04-06T19:07:47.529Z,35.10
2018-04-06T19:10:15.020Z,35.10
2018-04-06T19:12:42.480Z,35.30
2018-04-06T19:15:10.060Z,35.50
2018-04-06T19:17:37.520Z,35.50
2018-04-06T19:20:05.750Z,35.90
2018-04-06T19:22:33.224Z,35.70
2018-04-06T19:25:00.704Z,35.90
2018-04-06T19:27:28.968Z,36.30
2018-04-06T19:29:56.430Z,36.20
2018-04-06T19:32:23.910Z,36.40
2018-04-06T19:34:51.407Z,36.20
2018-04-06T19:37:18.896Z,36.70
2018-04-06T19:39:46.384Z,36.70
2018-04-06T19:42:13.862Z,36.80
2018-04-06T19:44:41.366Z,36.90
2018-04-06T19:47:08.857Z,37.10
2018-04-06T19:49:36.341Z,37.20
2018-04-06T19:52:03.819Z,37.20
2018-04-06T19:54:31.296Z,37.30
2018-04-06T19:56:58.786Z,37.40
2018-04-06T19:59:26.250Z,37.60
2018-04-06T20:01:53.734Z,37.80
2018-04-06T20:04:21.196Z,38.00
2018-04-06T20:06:48.676Z,38.10
2018-04-06T20:09:16.148Z,38.30
2018-04-06T20:11:44.385Z,38.40
2018-04-06T20:14:11.865Z,38.40
2018-04-06T20:16:39.356Z,38.40
2018-04-06T20:19:06.890Z,38.50
2018-04-06T20:21:34.396Z,38.50
2018-04-06T20:24:01.867Z,38.60
2018-04-06T20:26:29.330Z,38.50
2018-04-06T20:28:56.814Z,38.50
2018-04-06T20:31:24.312Z,38.40
2018-04-06T20:33:51.796Z,38.40
2018-04-06T20:36:19.287Z,38.50
2018-04-06T20:38:46.763Z,38.50
2018-04-06T20:41:14.249Z,38.50
2018-04-06T20:43:41.739Z,38.80
2018-04-06T20:46:09.214Z,38.90
2018-04-06T20:48:36.700Z,39.10
2018-04-06T20:51:04.230Z,39.70
2018-04-06T20:53:31.724Z,39.20
2018-04-06T20:55:59.207Z,39.30
2018-04-06T20:58:26.702Z,39.50
2018-04-06T21:00:54.215Z,39.60
2018-04-06T21:03:21.679Z,39.70
2018-04-06T21:05:49.163Z,39.80
2018-04-06T21:08:16.627Z,40.40
2018-04-06T21:10:44.111Z,40.40
2018-04-06T21:13:12.396Z,40.50
2018-04-06T21:15:40.647Z,40.60
2018-04-06T21:18:08.129Z,40.60
2018-04-06T21:20:35.632Z,40.60
2018-04-06T21:23:03.298Z,40.60
2018-04-06T21:25:30.819Z,40.80
2018-04-06T21:27:58.339Z,40.80
2018-04-06T21:30:26.731Z,40.80
2018-04-06T21:32:54.249Z,41.00
2018-04-06T21:35:21.756Z,41.00
2018-04-06T21:37:50.066Z,41.30
2018-04-06T21:40:17.576Z,41.30
2018-04-06T21:42:45.905Z,41.70
2018-04-06T21:45:13.372Z,41.60
2018-04-06T21:47:40.926Z,41.70
2018-04-06T21:50:08.440Z,41.90
2018-04-06T21:52:35.928Z,42.00
2018-04-06T21:55:03.427Z,42.00
2018-04-06T21:57:30.917Z,41.90
2018-04-06T21:59:58.514Z,42.00
2018-04-06T22:02:25.999Z,42.00
2018-04-06T22:04:53.467Z,42.10
2018-04-06T22:07:20.919Z,42.00
2018-04-06T22:09:48.391Z,42.10
2018-04-06T22:12:15.844Z,42.10
2018-04-06T22:14:43.318Z,42.10
2018-04-06T22:17:10.773Z,42.30
2018-04-06T22:19:39.004Z,42.40
2018-04-06T22:22:06.463Z,42.40
2018-04-06T22:24:33.914Z,42.40
2018-04-06T22:27:01.375Z,42.40
2018-04-06T22:29:28.831Z,43.40
2018-04-06T22:31:56.294Z,43.40
2018-04-06T22:34:23.758Z,43.40
2018-04-06T22:36:51.221Z,43.50
2018-04-06T22:39:18.690Z,43.60
2018-04-06T22:41:46.150Z,43.70
2018-04-06T22:44:14.377Z,44.10
2018-04-06T22:46:41.844Z,44.00
2018-04-06T22:49:09.294Z,44.10
2018-04-06T22:51:37.312Z,44.10
2018-04-06T22:54:04.758Z,44.00
2018-04-06T22:56:32.995Z,44.10
2018-04-06T22:59:00.455Z,44.10
2018-04-06T23:01:27.926Z,44.10
2018-04-06T23:03:55.382Z,44.30
2018-04-06T23:06:22.844Z,44.40
2018-04-06T23:08:50.286Z,44.40
2018-04-06T23:11:17.750Z,44.40
2018-04-06T23:13:45.211Z,44.40
2018-04-06T23:16:12.687Z,44.50
2018-04-06T23:18:40.919Z,45.20
2018-04-06T23:21:08.374Z,45.20
2018-04-06T23:23:35.848Z,45.40
2018-04-06T23:26:03.294Z,45.60
2018-04-06T23:28:30.746Z,45.80
2018-04-06T23:30:58.202Z,45.90
2018-04-06T23:33:25.662Z,45.80
2018-04-06T23:35:53.123Z,45.90
2018-04-06T23:38:20.578Z,46.10
2018-04-06T23:40:48.045Z,46.20
2018-04-06T23:43:15.512Z,46.10
2018-04-06T23:45:42.954Z,46.10
2018-04-06T23:48:10.434Z,46.10
2018-04-06T23:50:37.890Z,46.10
2018-04-06T23:53:05.351Z,46.20
2018-04-06T23:55:32.804Z,46.30
2018-04-06T23:58:00.281Z,46.40
